createdAt,value
2023-06-03T00:00:32.066Z,12.70
2023-06-03T00:03:01.391Z,12.70
2023-06-03T00:05:30.661Z,12.60
2023-06-03T00:07:59.754Z,12.60
2023-06-03T00:10:28.921Z,12.50
2023-06-03T00:12:58.101Z,12.50
2023-06-03T00:15:27.410Z,12.50
2023-06-03T00:17:57.104Z,12.50
2023-06-03T00:20:26.502Z,12.40
2023-06-03T00:22:55.639Z,12.40
2023-06-03T00:25:25.139Z,12.40
2023-06-03T00:27:54.395Z,12.30
2023-06-03T00:30:23.641Z,12.30
2023-06-03T00:32:53.034Z,12.20
2023-06-03T00:35:22.256Z,12.20
2023-06-03T00:37:51.396Z,12.20
2023-06-03T00:40:20.734Z,12.10
2023-06-03T00:42:50.758Z,12.00
2023-06-03T00:45:19.987Z,12.00
2023-06-03T00:47:49.243Z,11.90
2023-06-03T00:50:18.488Z,11.90
2023-06-03T00:52:47.997Z,11.80
2023-06-03T00:55:17.442Z,11.80
2023-06-03T00:57:48.539Z,11.80
2023-06-03T01:00:17.681Z,11.80
2023-06-03T01:02:47.842Z,11.70
2023-06-03T01:05:17.440Z,11.60
2023-06-03T01:07:49.583Z,11.60
2023-06-03T01:10:47.423Z,11.60
2023-06-03T01:13:49.142Z,11.60
2023-06-03T01:16:21.740Z,11.60
2023-06-03T01:18:52.972Z,11.60
2023-06-03T01:21:25.681Z,11.60
2023-06-03T01:23:54.853Z,11.60
2023-06-03T01:26:24.251Z,11.70
2023-06-03T01:28:53.401Z,11.80
2023-06-03T01:31:22.649Z,11.80
2023-06-03T01:33:52.252Z,11.90
2023-06-03T01:36:21.493Z,11.90
2023-06-03T01:38:50.742Z,11.80
2023-06-03T01:41:19.994Z,11.80
2023-06-03T01:43:49.181Z,11.80
2023-06-03T01:46:18.674Z,11.80
2023-06-03T01:48:47.817Z,11.80
2023-06-03T01:51:16.954Z,11.80
2023-06-03T01:53:46.189Z,11.90
2023-06-03T01:56:16.675Z,11.90
2023-06-03T01:58:46.226Z,11.90
2023-06-03T02:01:15.452Z,12.00
2023-06-03T02:03:44.620Z,12.10
2023-06-03T02:06:14.924Z,12.10
2023-06-03T02:08:44.210Z,12.20
2023-06-03T02:11:13.346Z,12.20
2023-06-03T02:13:43.955Z,12.20
2023-06-03T02:16:13.144Z,12.20
2023-06-03T02:18:43.444Z,12.20
2023-06-03T02:21:12.552Z,12.20
2023-06-03T02:23:41.782Z,12.20
2023-06-03T02:26:14.854Z,12.10
2023-06-03T02:28:44.058Z,12.10
2023-06-03T02:31:14.954Z,12.00
2023-06-03T02:33:44.924Z,12.00
2023-06-03T02:36:15.824Z,12.00
2023-06-03T02:38:46.107Z,12.00
2023-06-03T02:41:15.943Z,12.00
2023-06-03T02:43:45.667Z,11.90
2023-06-03T02:46:14.853Z,11.90
2023-06-03T02:48:44.030Z,11.80
2023-06-03T02:51:13.172Z,11.80
2023-06-03T02:53:42.325Z,11.80
2023-06-03T02:56:11.640Z,11.80
2023-06-03T02:58:41.079Z,11.80
2023-06-03T03:01:10.409Z,11.80
2023-06-03T03:03:41.669Z,11.80
2023-06-03T03:06:16.790Z,11.70
2023-06-03T03:08:46.392Z,11.80
2023-06-03T03:11:16.019Z,11.70
2023-06-03T03:13:46.344Z,11.80
2023-06-03T03:16:18.611Z,11.80
2023-06-03T03:18:52.277Z,11.80
2023-06-03T03:21:22.048Z,11.90
2023-06-03T03:23:51.705Z,12.00
2023-06-03T03:26:23.190Z,12.10
2023-06-03T03:28:54.896Z,12.10
2023-06-03T03:31:27.576Z,12.10
2023-06-03T03:33:56.885Z,12.10
2023-06-03T03:36:27.491Z,12.20
2023-06-03T03:39:04.398Z,12.20
2023-06-03T03:41:36.859Z,12.20
2023-06-03T03:44:06.765Z,12.20
2023-06-03T03:46:36.449Z,12.30
2023-06-03T03:49:06.595Z,12.30
2023-06-03T03:51:36.536Z,12.30
2023-06-03T03:54:06.179Z,12.30
2023-06-03T03:56:36.210Z,12.30
2023-06-03T03:59:05.894Z,12.30
2023-06-03T04:01:41.426Z,12.30
2023-06-03T04:04:44.956Z,12.30
2023-06-03T04:07:23.557Z,12.40
2023-06-03T04:09:52.802Z,12.40
2023-06-03T04:12:33.668Z,12.40
2023-06-03T04:15:05.659Z,12.50
2023-06-03T04:17:39.173Z,12.40
2023-06-03T04:20:32.653Z,12.50
2023-06-03T04:23:05.552Z,12.50
2023-06-03T04:25:35.003Z,12.50
2023-06-03T04:28:04.698Z,12.50
2023-06-03T04:30:33.894Z,12.50
2023-06-03T04:33:03.755Z,12.60
2023-06-03T04:35:34.702Z,12.60
2023-06-03T04:38:04.320Z,12.80
2023-06-03T04:40:33.588Z,13.00
2023-06-03T04:43:04.855Z,13.40
2023-06-03T04:45:35.892Z,13.70
2023-06-03T04:48:06.726Z,14.10
2023-06-03T04:50:38.780Z,14.20
2023-06-03T04:53:10.755Z,14.40
2023-06-03T04:55:45.395Z,14.40
2023-06-03T04:58:21.151Z,14.60
2023-06-03T05:00:52.318Z,14.70
2023-06-03T05:03:21.709Z,14.90
2023-06-03T05:05:51.709Z,15.10
2023-06-03T05:08:23.103Z,15.30
2023-06-03T05:10:54.414Z,15.50
2023-06-03T05:13:23.857Z,15.80
2023-06-03T05:15:53.217Z,16.10
2023-06-03T05:18:22.473Z,16.40
2023-06-03T05:20:51.618Z,16.70
2023-06-03T05:23:20.785Z,17.00
2023-06-03T05:25:51.175Z,17.10
2023-06-03T05:28:20.463Z,17.10
2023-06-03T05:30:50.145Z,17.00
2023-06-03T05:33:30.891Z,16.90
2023-06-03T05:36:06.226Z,16.90
2023-06-03T05:38:35.472Z,16.70
2023-06-03T05:41:08.121Z,16.70
2023-06-03T05:43:38.314Z,16.60
2023-06-03T05:46:08.391Z,16.60
2023-06-03T05:48:38.665Z,16.50
2023-06-03T05:51:09.378Z,16.40
2023-06-03T05:53:44.884Z,16.40
2023-06-03T05:56:16.052Z,16.40
2023-06-03T05:58:45.361Z,16.30
2023-06-03T06:01:15.035Z,16.40
2023-06-03T06:03:45.781Z,16.50
2023-06-03T06:06:17.015Z,16.80
2023-06-03T06:08:46.235Z,17.00
2023-06-03T06:11:16.111Z,17.10
2023-06-03T06:13:45.482Z,17.30
2023-06-03T06:16:17.111Z,17.50
2023-06-03T06:18:46.980Z,17.60
2023-06-03T06:21:17.231Z,17.60
2023-06-03T06:23:48.141Z,17.70
2023-06-03T06:26:17.564Z,17.70
2023-06-03T06:28:48.032Z,17.70
2023-06-03T06:31:20.097Z,17.90
2023-06-03T06:33:55.599Z,17.90
2023-06-03T06:36:51.172Z,18.00
2023-06-03T06:39:48.428Z,18.10
2023-06-03T06:42:43.820Z,18.30
2023-06-03T06:45:29.532Z,18.50
2023-06-03T06:48:12.976Z,18.50
2023-06-03T06:50:56.720Z,18.50
2023-06-03T06:53:30.737Z,18.50
2023-06-03T06:56:10.009Z,18.70
2023-06-03T06:59:00.566Z,18.70
2023-06-03T07:01:29.818Z,18.80
2023-06-03T07:04:00.678Z,18.90
2023-06-03T07:06:30.174Z,18.80
2023-06-03T07:09:07.422Z,18.70
2023-06-03T07:11:44.513Z,18.70
2023-06-03T07:14:14.824Z,18.80
2023-06-03T07:16:44.922Z,19.10
2023-06-03T07:19:14.926Z,19.30
2023-06-03T07:21:48.274Z,19.30
2023-06-03T07:24:17.756Z,19.50
2023-06-03T07:26:50.709Z,19.70
2023-06-03T07:29:20.241Z,19.70
2023-06-03T07:31:50.852Z,19.80
2023-06-03T07:34:23.151Z,19.90
2023-06-03T07:36:53.576Z,19.90
2023-06-03T07:39:23.943Z,20.00
2023-06-03T07:41:59.171Z,20.00
2023-06-03T07:44:43.245Z,20.10
2023-06-03T07:47:14.720Z,20.10
2023-06-03T07:49:49.220Z,20.30
2023-06-03T07:52:22.544Z,20.60
2023-06-03T07:54:51.842Z,20.70
2023-06-03T07:57:21.138Z,20.80
2023-06-03T07:59:57.329Z,21.00
2023-06-03T08:02:27.132Z,21.10
2023-06-03T08:05:01.267Z,21.10
2023-06-03T08:07:30.821Z,21.00
2023-06-03T08:09:59.998Z,20.60
2023-06-03T08:12:31.887Z,20.30
2023-06-03T08:15:04.374Z,20.20
2023-06-03T08:17:42.994Z,19.90
2023-06-03T08:20:13.484Z,19.80
2023-06-03T08:22:46.386Z,20.00
2023-06-03T08:25:19.776Z,20.10
2023-06-03T08:27:50.709Z,20.30
2023-06-03T08:30:23.731Z,20.40
2023-06-03T08:32:53.374Z,20.40
2023-06-03T08:35:23.415Z,20.40
2023-06-03T08:37:53.408Z,20.50
2023-06-03T08:40:24.788Z,20.50
2023-06-03T08:43:03.594Z,20.50
2023-06-03T08:45:39.270Z,20.70
2023-06-03T08:48:34.160Z,20.70
2023-06-03T08:51:06.996Z,20.80
2023-06-03T08:53:45.776Z,20.70
2023-06-03T08:56:18.098Z,20.70
2023-06-03T08:58:50.584Z,20.80
2023-06-03T09:03:58.019Z,20.50
2023-06-03T09:06:27.609Z,20.40
2023-06-03T09:08:58.864Z,20.50
2023-06-03T09:11:28.217Z,20.50
2023-06-03T09:13:57.993Z,20.70
2023-06-03T09:16:28.525Z,20.80
2023-06-03T09:18:58.706Z,20.80
2023-06-03T09:21:28.365Z,20.80
2023-06-03T09:23:57.536Z,20.80
2023-06-03T09:26:26.898Z,20.90
2023-06-03T09:28:56.226Z,21.00
2023-06-03T09:31:26.099Z,21.10
2023-06-03T09:33:55.927Z,21.10
2023-06-03T09:36:26.895Z,21.10
2023-06-03T09:38:57.076Z,21.20
2023-06-03T09:41:28.181Z,21.30
2023-06-03T09:44:04.770Z,21.30
2023-06-03T09:46:34.811Z,21.30
2023-06-03T09:49:13.829Z,21.30
2023-06-03T09:51:44.009Z,21.40
2023-06-03T09:54:17.881Z,21.40
2023-06-03T09:56:47.276Z,21.40
2023-06-03T09:59:19.616Z,21.50
2023-06-03T10:01:50.499Z,21.50
2023-06-03T10:04:23.632Z,21.60
2023-06-03T10:07:11.850Z,21.70
2023-06-03T10:09:48.645Z,21.70
2023-06-03T10:12:31.412Z,21.70
2023-06-03T10:15:01.159Z,21.80
2023-06-03T10:17:33.321Z,21.80
2023-06-03T10:20:05.868Z,21.90
2023-06-03T10:22:36.496Z,21.90
2023-06-03T10:25:08.118Z,21.90
2023-06-03T10:27:37.358Z,21.90
2023-06-03T10:30:08.748Z,22.00
2023-06-03T10:32:38.247Z,22.00
2023-06-03T10:35:07.788Z,22.10
2023-06-03T10:37:37.481Z,22.00
2023-06-03T10:40:08.066Z,21.90
2023-06-03T10:42:38.941Z,21.80
2023-06-03T10:45:08.654Z,21.70
2023-06-03T10:47:41.941Z,21.80
2023-06-03T10:50:22.794Z,21.80
2023-06-03T10:53:08.777Z,21.80
2023-06-03T10:55:43.954Z,21.80
2023-06-03T10:58:23.888Z,21.80
2023-06-03T11:00:57.143Z,21.90
2023-06-03T11:03:30.316Z,21.80
2023-06-03T11:06:32.243Z,22.00
2023-06-03T11:09:06.681Z,22.00
2023-06-03T11:11:42.213Z,21.90
2023-06-03T11:14:43.803Z,22.00
2023-06-03T11:17:14.121Z,22.10
2023-06-03T11:19:46.145Z,22.20
2023-06-03T11:22:38.805Z,22.10
2023-06-03T11:25:08.944Z,22.20
2023-06-03T11:27:38.350Z,22.30
2023-06-03T11:30:08.543Z,22.40
2023-06-03T11:32:39.731Z,22.40
2023-06-03T11:35:26.657Z,22.50
2023-06-03T11:37:56.027Z,22.50
2023-06-03T11:40:25.245Z,22.60
2023-06-03T11:42:57.265Z,22.70
2023-06-03T11:45:28.292Z,22.70
2023-06-03T11:48:08.633Z,22.80
2023-06-03T11:50:54.602Z,22.80
2023-06-03T11:53:30.746Z,22.80
2023-06-03T11:56:11.956Z,22.80
2023-06-03T11:58:42.787Z,22.90
2023-06-03T12:01:18.577Z,22.90
2023-06-03T12:04:01.028Z,23.00
2023-06-03T12:06:37.390Z,23.10
2023-06-03T12:09:06.677Z,23.10
2023-06-03T12:11:41.669Z,23.20
2023-06-03T12:14:33.907Z,23.30
2023-06-03T12:17:14.898Z,23.30
2023-06-03T12:19:46.522Z,23.30
2023-06-03T12:22:23.751Z,23.30
2023-06-03T12:24:53.291Z,23.40
2023-06-03T12:27:24.355Z,23.60
2023-06-03T12:29:58.292Z,25.90
2023-06-03T12:32:32.857Z,30.50
2023-06-03T12:35:12.520Z,34.00
2023-06-03T12:37:41.870Z,36.70
2023-06-03T12:40:22.856Z,39.30
2023-06-03T12:42:51.986Z,41.40
2023-06-03T12:45:27.263Z,43.20
2023-06-03T12:47:57.227Z,44.60
2023-06-03T12:50:34.735Z,45.90
2023-06-03T12:53:19.573Z,47.10
2023-06-03T12:55:49.174Z,48.10
2023-06-03T12:58:19.787Z,49.30
2023-06-03T13:00:48.957Z,50.10
2023-06-03T13:03:18.519Z,50.90
2023-06-03T13:05:48.412Z,51.80
2023-06-03T13:08:17.749Z,52.80
2023-06-03T13:10:47.200Z,53.80
2023-06-03T13:13:16.686Z,54.80
2023-06-03T13:15:45.802Z,56.20
2023-06-03T13:18:14.958Z,57.30
2023-06-03T13:20:44.107Z,57.80
2023-06-03T13:23:13.432Z,57.80
2023-06-03T13:25:42.789Z,58.50
2023-06-03T13:28:11.966Z,59.50
2023-06-03T13:30:41.127Z,60.10
2023-06-03T13:33:10.360Z,60.50
2023-06-03T13:35:39.637Z,60.40
2023-06-03T13:38:08.762Z,60.60
2023-06-03T13:40:37.902Z,60.80
2023-06-03T13:43:07.106Z,60.90
2023-06-03T13:45:36.276Z,61.00
2023-06-03T13:48:05.603Z,60.90
2023-06-03T13:50:34.969Z,61.00
2023-06-03T13:53:04.102Z,61.20
2023-06-03T13:55:33.217Z,60.70
2023-06-03T13:58:02.354Z,60.80
2023-06-03T14:00:31.456Z,61.20
2023-06-03T14:03:00.766Z,61.00
2023-06-03T14:05:30.033Z,61.10
2023-06-03T14:07:59.254Z,61.40
2023-06-03T14:10:28.328Z,60.90
2023-06-03T14:12:57.430Z,60.60
2023-06-03T14:15:27.206Z,60.90
2023-06-03T14:17:56.391Z,61.10
2023-06-03T14:20:25.503Z,60.80
2023-06-03T14:22:54.731Z,60.50
2023-06-03T14:25:23.915Z,60.40
2023-06-03T14:27:53.068Z,59.80
2023-06-03T14:30:28.373Z,59.30
2023-06-03T14:33:02.236Z,59.10
2023-06-03T14:35:31.456Z,59.30
2023-06-03T14:38:00.695Z,59.50
2023-06-03T14:40:29.952Z,59.10
2023-06-03T14:42:59.277Z,58.90
2023-06-03T14:45:28.382Z,58.80
2023-06-03T14:47:57.548Z,59.00
2023-06-03T14:50:26.664Z,58.80
2023-06-03T14:52:55.855Z,58.70
2023-06-03T14:55:24.957Z,58.50
2023-06-03T14:57:54.088Z,58.40
2023-06-03T15:00:23.469Z,58.20
2023-06-03T15:02:52.770Z,58.00
2023-06-03T15:05:22.147Z,57.90
2023-06-03T15:07:51.335Z,58.10
2023-06-03T15:10:20.458Z,58.00
2023-06-03T15:12:49.835Z,57.90
2023-06-03T15:15:19.039Z,58.00
2023-06-03T15:17:48.293Z,57.90
2023-06-03T15:20:17.591Z,57.90
2023-06-03T15:22:46.835Z,57.90
2023-06-03T15:25:16.220Z,57.60
2023-06-03T15:27:45.532Z,57.30
2023-06-03T15:30:14.812Z,57.10
2023-06-03T15:32:44.129Z,56.80
2023-06-03T15:35:13.625Z,57.00
2023-06-03T15:37:42.826Z,56.40
2023-06-03T15:40:12.456Z,56.20
2023-06-03T15:42:42.184Z,56.00
2023-06-03T15:45:11.526Z,56.30
2023-06-03T15:47:40.710Z,56.00
2023-06-03T15:50:09.893Z,55.90
2023-06-03T15:52:39.125Z,56.00
2023-06-03T15:55:08.527Z,56.00
2023-06-03T15:57:37.706Z,55.90
2023-06-03T16:00:07.544Z,55.70
2023-06-03T16:02:36.835Z,55.10
2023-06-03T16:05:06.742Z,55.00
2023-06-03T16:07:35.895Z,54.80
2023-06-03T16:10:05.376Z,53.90
2023-06-03T16:12:34.547Z,53.40
2023-06-03T16:15:03.857Z,53.40
2023-06-03T16:17:33.551Z,53.30
2023-06-03T16:20:03.001Z,52.50
2023-06-03T16:22:32.537Z,51.90
2023-06-03T16:25:01.865Z,51.50
2023-06-03T16:27:31.247Z,51.60
2023-06-03T16:30:00.536Z,51.30
2023-06-03T16:32:30.031Z,51.00
2023-06-03T16:34:59.243Z,50.60
2023-06-03T16:37:28.372Z,50.20
2023-06-03T16:39:58.734Z,49.40
2023-06-03T16:42:27.905Z,49.00
2023-06-03T16:44:56.991Z,48.90
2023-06-03T16:47:26.204Z,48.80
2023-06-03T16:49:56.141Z,48.50
2023-06-03T16:52:25.344Z,47.90
2023-06-03T16:54:54.477Z,47.30
2023-06-03T16:57:27.848Z,47.10
2023-06-03T16:59:57.424Z,45.10
2023-06-03T17:02:26.763Z,40.40
2023-06-03T17:04:57.818Z,36.50
2023-06-03T17:07:27.062Z,33.90
2023-06-03T17:09:56.228Z,31.70
2023-06-03T17:12:25.604Z,30.10
2023-06-03T17:14:55.936Z,28.80
2023-06-03T17:17:25.131Z,27.80
2023-06-03T17:19:54.295Z,26.90
2023-06-03T17:22:23.547Z,26.20
2023-06-03T17:24:52.703Z,25.60
2023-06-03T17:27:21.785Z,25.00
2023-06-03T17:29:51.242Z,24.60
2023-06-03T17:32:20.440Z,24.20
2023-06-03T17:34:49.587Z,23.90
2023-06-03T17:37:19.836Z,23.60
2023-06-03T17:39:48.947Z,23.30
2023-06-03T17:42:18.407Z,23.10
2023-06-03T17:44:48.802Z,22.90
2023-06-03T17:47:19.189Z,22.70
2023-06-03T17:49:48.367Z,22.50
2023-06-03T17:52:18.116Z,22.40
2023-06-03T17:54:47.248Z,22.20
2023-06-03T17:57:16.356Z,22.00
2023-06-03T17:59:45.523Z,21.80
2023-06-03T18:02:14.689Z,21.60
2023-06-03T18:04:43.905Z,21.40
2023-06-03T18:07:15.208Z,21.20
2023-06-03T18:09:45.618Z,21.00
2023-06-03T18:12:15.214Z,20.80
2023-06-03T18:14:44.322Z,20.60
2023-06-03T18:17:13.973Z,20.40
2023-06-03T18:19:43.111Z,20.30
2023-06-03T18:22:12.222Z,20.10
2023-06-03T18:24:41.353Z,20.00
2023-06-03T18:27:10.592Z,19.80
2023-06-03T18:29:40.055Z,19.80
2023-06-03T18:32:09.367Z,19.60
2023-06-03T18:34:44.841Z,19.50
2023-06-03T18:37:14.061Z,19.30
2023-06-03T18:39:43.381Z,19.30
2023-06-03T18:42:12.501Z,19.20
2023-06-03T18:44:41.591Z,19.00
2023-06-03T18:47:10.888Z,18.80
2023-06-03T18:49:40.039Z,18.60
2023-06-03T18:52:10.148Z,18.40
2023-06-03T18:54:39.378Z,18.20
2023-06-03T18:57:08.464Z,18.20
2023-06-03T18:59:37.694Z,18.10
2023-06-03T19:02:07.545Z,18.10
2023-06-03T19:04:39.163Z,18.00
2023-06-03T19:07:08.296Z,18.00
2023-06-03T19:09:37.427Z,17.90
2023-06-03T19:12:07.292Z,17.90
2023-06-03T19:14:36.514Z,17.80
2023-06-03T19:17:05.828Z,17.70
2023-06-03T19:19:34.945Z,17.70
2023-06-03T19:22:04.220Z,17.60
2023-06-03T19:24:33.306Z,17.60
2023-06-03T19:27:02.659Z,17.60
2023-06-03T19:29:31.914Z,17.50
2023-06-03T19:32:01.828Z,17.40
2023-06-03T19:34:31.365Z,17.40
2023-06-03T19:37:00.762Z,17.30
2023-06-03T19:39:30.985Z,17.30
2023-06-03T19:42:00.139Z,17.30
2023-06-03T19:44:29.285Z,17.30
2023-06-03T19:46:58.494Z,17.30
2023-06-03T19:49:27.702Z,17.20
2023-06-03T19:51:56.778Z,17.20
2023-06-03T19:54:26.198Z,17.10
2023-06-03T19:56:56.206Z,17.10
2023-06-03T19:59:25.696Z,17.10
2023-06-03T20:01:54.780Z,17.10
2023-06-03T20:04:23.989Z,17.00
2023-06-03T20:06:53.093Z,17.00
2023-06-03T20:09:22.543Z,17.00
2023-06-03T20:11:51.927Z,17.00
2023-06-03T20:14:21.183Z,17.00
2023-06-03T20:16:51.055Z,16.90
2023-06-03T20:19:21.075Z,16.80
2023-06-03T20:21:50.203Z,16.70
2023-06-03T20:24:19.296Z,16.80
2023-06-03T20:26:48.463Z,16.80
2023-06-03T20:29:18.911Z,16.80
2023-06-03T20:31:48.077Z,16.80
2023-06-03T20:34:17.358Z,16.80
2023-06-03T20:36:46.468Z,16.80
2023-06-03T20:39:16.127Z,16.80
2023-06-03T20:41:45.227Z,16.70
2023-06-03T20:44:14.312Z,16.70
2023-06-03T20:46:43.540Z,16.70
2023-06-03T20:49:12.694Z,16.70
2023-06-03T20:51:42.094Z,16.70
2023-06-03T20:54:11.331Z,16.60
2023-06-03T20:56:41.654Z,16.50
2023-06-03T20:59:11.028Z,16.50
2023-06-03T21:01:41.225Z,16.50
2023-06-03T21:04:12.144Z,16.50
2023-06-03T21:06:43.473Z,16.50
2023-06-03T21:09:12.895Z,16.40
2023-06-03T21:11:43.940Z,16.40
2023-06-03T21:14:13.310Z,16.30
2023-06-03T21:16:42.542Z,16.20
2023-06-03T21:19:14.862Z,16.20
2023-06-03T21:21:45.184Z,16.10
2023-06-03T21:24:14.327Z,16.00
2023-06-03T21:26:43.406Z,16.00
2023-06-03T21:29:12.470Z,16.00
2023-06-03T21:31:41.720Z,15.90
2023-06-03T21:34:11.190Z,15.90
2023-06-03T21:36:40.393Z,15.80
2023-06-03T21:39:10.897Z,15.80
2023-06-03T21:41:40.025Z,15.80
2023-06-03T21:44:09.653Z,15.80
2023-06-03T21:46:38.803Z,15.80
2023-06-03T21:49:07.924Z,15.80
2023-06-03T21:51:37.998Z,15.70
2023-06-03T21:54:07.253Z,15.60
2023-06-03T21:56:36.299Z,15.50
2023-06-03T21:59:05.452Z,15.40
2023-06-03T22:01:34.786Z,15.30
2023-06-03T22:04:03.957Z,15.20
2023-06-03T22:06:33.204Z,15.10
2023-06-03T22:09:02.412Z,15.00
2023-06-03T22:11:34.490Z,14.90
2023-06-03T22:14:03.687Z,14.80
2023-06-03T22:16:32.905Z,14.70
2023-06-03T22:19:02.147Z,14.60
2023-06-03T22:21:33.978Z,14.60
2023-06-03T22:24:03.238Z,14.40
2023-06-03T22:26:32.445Z,14.40
2023-06-03T22:29:01.883Z,14.30
2023-06-03T22:31:31.095Z,14.20
2023-06-03T22:34:00.372Z,14.20
2023-06-03T22:36:29.455Z,14.10
2023-06-03T22:38:58.529Z,14.00
2023-06-03T22:41:27.919Z,13.90
2023-06-03T22:43:57.299Z,13.80
2023-06-03T22:46:26.452Z,13.70
2023-06-03T22:48:55.632Z,13.70
2023-06-03T22:51:24.761Z,13.60
2023-06-03T22:53:54.122Z,13.50
2023-06-03T22:56:23.731Z,13.30
2023-06-03T22:58:52.826Z,13.20
2023-06-03T23:01:21.954Z,13.10
2023-06-03T23:03:51.463Z,13.10
2023-06-03T23:06:20.594Z,13.00
2023-06-03T23:08:49.754Z,12.90
2023-06-03T23:11:18.870Z,12.80
2023-06-03T23:13:47.993Z,12.70
2023-06-03T23:16:17.276Z,12.60
2023-06-03T23:18:46.490Z,12.60
2023-06-03T23:21:15.707Z,12.50
2023-06-03T23:23:44.991Z,12.50
2023-06-03T23:26:14.204Z,12.40
2023-06-03T23:28:43.371Z,12.30
2023-06-03T23:31:12.883Z,12.30
2023-06-03T23:33:41.945Z,12.20
2023-06-03T23:36:11.145Z,12.20
2023-06-03T23:38:40.437Z,12.10
2023-06-03T23:41:09.534Z,12.00
2023-06-03T23:43:38.646Z,12.00
2023-06-03T23:46:07.742Z,12.00
2023-06-03T23:48:36.877Z,11.90
2023-06-03T23:51:06.295Z,11.90
2023-06-03T23:53:35.674Z,11.80
2023-06-03T23:56:04.971Z,11.80
2023-06-03T23:58:34.206Z,11.80
